Time;durP1;ratioP1;P1;durP2;ratioP2;P2;SDS_P1;SDS_P2;PMS_P1;PMS_P2;Temp;Humidity;BMP_temperature;BMP_pressure;BME280_temperature;BME280_humidity;BME280_pressure;Samples;Min_cycle;Max_cycle;Signal;HPM_P1;HPM_P2
2021/11/18 00:01:10;;;;;;;5.50;3.50;;;;;;;;;;5099561;28;20201;-71
2021/11/18 00:03:39;;;;;;;6.03;3.40;;;;;;;;;;5099304;28;20201;-71
2021/11/18 00:06:06;;;;;;;4.03;3.40;;;;;;;;;;5099204;28;20282;-71
2021/11/18 00:08:34;;;;;;;3.97;3.20;;;;;;;;;;5098770;28;20232;-70
2021/11/18 00:11:04;;;;;;;5.87;3.67;;;;;;;;;;5088012;28;20232;-70
2021/11/18 00:13:35;;;;;;;3.60;3.10;;;;;;;;;;5099486;28;20268;-70
2021/11/18 00:16:03;;;;;;;3.57;3.10;;;;;;;;;;5098543;28;20716;-70
2021/11/18 00:18:32;;;;;;;4.90;3.80;;;;;;;;;;5098981;28;20225;-71
2021/11/18 00:21:02;;;;;;;5.27;3.83;;;;;;;;;;5098624;28;20566;-70
2021/11/18 00:23:31;;;;;;;4.37;3.43;;;;;;;;;;5098910;28;20212;-71
2021/11/18 00:25:59;;;;;;;5.07;3.43;;;;;;;;;;5099031;28;20214;-70
2021/11/18 00:28:27;;;;;;;5.10;3.37;;;;;;;;;;5098911;28;20296;-70
2021/11/18 00:30:56;;;;;;;5.73;4.37;;;;;;;;;;5098349;28;20232;-71
2021/11/18 00:33:25;;;;;;;4.73;3.60;;;;;;;;;;5099166;28;20266;-71
2021/11/18 00:35:53;;;;;;;4.00;3.00;;;;;;;;;;5098682;28;20209;-70
2021/11/18 00:38:21;;;;;;;6.10;3.20;;;;;;;;;;5098488;28;20232;-70
2021/11/18 00:40:50;;;;;;;5.07;3.30;;;;;;;;;;5084913;28;20224;-70
2021/11/18 00:43:19;;;;;;;4.07;3.23;;;;;;;;;;5098342;28;20241;-70
2021/11/18 00:45:47;;;;;;;4.23;3.00;;;;;;;;;;5098559;28;20237;-70
2021/11/18 00:48:17;;;;;;;4.93;3.33;;;;;;;;;;5098405;28;20221;-70
2021/11/18 00:50:45;;;;;;;4.07;3.30;;;;;;;;;;5098448;28;20229;-70
2021/11/18 00:53:32;;;;;;;4.93;3.63;;;;;;;;;;5098153;28;20293;-70
2021/11/18 00:56:00;;;;;;;3.80;3.30;;;;;;;;;;5098416;28;20293;-70
2021/11/18 00:58:28;;;;;;;4.77;3.00;;;;;;;;;;5098502;28;20225;-70
2021/11/18 01:00:56;;;;;;;4.77;3.67;;;;;;;;;;5098138;28;20694;-70
2021/11/18 01:03:26;;;;;;;4.60;3.40;;;;;;;;;;5098133;28;20572;-70
2021/11/18 01:05:55;;;;;;;3.70;3.30;;;;;;;;;;5098091;28;20206;-70
2021/11/18 01:08:24;;;;;;;4.63;3.43;;;;;;;;;;5097608;28;20772;-69
2021/11/18 01:10:53;;;;;;;5.17;3.57;;;;;;;;;;5097647;28;20236;-70
2021/11/18 01:13:22;;;;;;;4.67;3.50;;;;;;;;;;5097788;28;20202;-69
2021/11/18 01:15:50;;;;;;;5.50;3.63;;;;;;;;;;5097992;28;20212;-70
2021/11/18 01:18:18;;;;;;;4.03;3.30;;;;;;;;;;5097881;28;20230;-69
2021/11/18 01:20:48;;;;;;;3.83;3.43;;;;;;;;;;5097705;28;20660;-70
2021/11/18 01:23:18;;;;;;;4.13;3.30;;;;;;;;;;5097999;28;20213;-70
2021/11/18 01:25:46;;;;;;;4.87;3.63;;;;;;;;;;5098132;28;20216;-70
2021/11/18 01:28:14;;;;;;;4.07;3.13;;;;;;;;;;5097835;28;20239;-70
2021/11/18 01:30:42;;;;;;;4.00;3.30;;;;;;;;;;5098207;28;20212;-70
2021/11/18 01:33:12;;;;;;;2.97;2.63;;;;;;;;;;5097857;28;20212;-70
2021/11/18 01:35:40;;;;;;;4.37;3.10;;;;;;;;;;5097451;28;20591;-70
2021/11/18 01:38:09;;;;;;;4.10;2.93;;;;;;;;;;5097805;28;20221;-70
2021/11/18 01:40:40;;;;;;;3.13;2.73;;;;;;;;;;5097784;28;20212;-70
2021/11/18 01:43:09;;;;;;;3.60;3.00;;;;;;;;;;5097542;28;20233;-70
2021/11/18 01:45:38;;;;;;;4.50;3.40;;;;;;;;;;5097867;28;20209;-70
2021/11/18 01:48:06;;;;;;;5.23;3.50;;;;;;;;;;5097378;28;20225;-69
2021/11/18 01:50:35;;;;;;;3.20;2.83;;;;;;;;;;5097490;28;20207;-70
2021/11/18 01:53:05;;;;;;;3.77;3.40;;;;;;;;;;5097645;28;20225;-69
2021/11/18 01:55:35;;;;;;;4.33;3.27;;;;;;;;;;5097505;28;20292;-70
2021/11/18 01:58:03;;;;;;;3.27;2.93;;;;;;;;;;5097711;28;20228;-70
2021/11/18 02:00:32;;;;;;;4.57;3.00;;;;;;;;;;5097348;28;20740;-70
2021/11/18 02:03:02;;;;;;;4.43;2.87;;;;;;;;;;5097213;28;20233;-70
2021/11/18 02:05:33;;;;;;;5.23;2.90;;;;;;;;;;5097298;28;20688;-70
2021/11/18 02:08:02;;;;;;;4.90;3.30;;;;;;;;;;5097523;28;20221;-70
2021/11/18 02:10:31;;;;;;;4.90;3.63;;;;;;;;;;5094268;28;20589;-70
2021/11/18 02:13:03;;;;;;;4.67;3.23;;;;;;;;;;5080702;28;20226;-69
2021/11/18 02:15:32;;;;;;;4.47;2.67;;;;;;;;;;5096067;28;20212;-70
2021/11/18 02:18:01;;;;;;;3.17;2.73;;;;;;;;;;5097076;28;20232;-70
2021/11/18 02:20:31;;;;;;;5.17;3.17;;;;;;;;;;5098595;28;20653;-70
2021/11/18 02:23:00;;;;;;;4.37;3.37;;;;;;;;;;5101008;28;20322;-70
2021/11/18 02:25:28;;;;;;;4.87;3.30;;;;;;;;;;5101511;28;20279;-70
2021/11/18 02:27:56;;;;;;;3.57;3.10;;;;;;;;;;5100687;28;20699;-70
2021/11/18 02:30:26;;;;;;;4.90;3.50;;;;;;;;;;5101492;28;20571;-70
2021/11/18 02:32:54;;;;;;;5.43;3.43;;;;;;;;;;5100690;28;20714;-70
2021/11/18 02:35:23;;;;;;;5.73;3.33;;;;;;;;;;5101317;28;20211;-70
2021/11/18 02:37:53;;;;;;;5.07;3.37;;;;;;;;;;5100580;28;20577;-70
2021/11/18 02:40:22;;;;;;;4.70;3.20;;;;;;;;;;5101024;28;20212;-70
2021/11/18 02:42:51;;;;;;;5.10;3.57;;;;;;;;;;5100631;28;20225;-70
2021/11/18 02:45:21;;;;;;;3.73;3.37;;;;;;;;;;5100996;28;20219;-70
2021/11/18 02:47:49;;;;;;;4.70;3.77;;;;;;;;;;5100561;28;20206;-70
2021/11/18 02:50:18;;;;;;;4.90;3.57;;;;;;;;;;5100440;28;20209;-70
2021/11/18 02:52:46;;;;;;;4.00;3.23;;;;;;;;;;5100506;28;20321;-70
2021/11/18 02:55:17;;;;;;;4.27;3.50;;;;;;;;;;5100682;28;20208;-70
2021/11/18 02:57:44;;;;;;;6.30;3.60;;;;;;;;;;5100689;28;20687;-70
2021/11/18 03:00:14;;;;;;;6.50;3.53;;;;;;;;;;5100753;28;20201;-70
2021/11/18 03:02:42;;;;;;;4.40;3.20;;;;;;;;;;5100530;28;20212;-70
2021/11/18 03:05:11;;;;;;;6.27;3.57;;;;;;;;;;5100374;28;20217;-70
2021/11/18 03:07:39;;;;;;;6.90;3.80;;;;;;;;;;5100371;28;20206;-70
2021/11/18 03:10:08;;;;;;;6.53;3.33;;;;;;;;;;5100391;28;20229;-70
2021/11/18 03:12:38;;;;;;;7.43;3.47;;;;;;;;;;5100141;28;20229;-70
2021/11/18 03:15:07;;;;;;;4.60;3.00;;;;;;;;;;5100187;28;20201;-70
2021/11/18 03:17:34;;;;;;;5.07;3.67;;;;;;;;;;5100117;28;20205;-70
2021/11/18 03:20:03;;;;;;;6.37;3.37;;;;;;;;;;5099878;28;20213;-69
2021/11/18 03:22:31;;;;;;;4.03;3.37;;;;;;;;;;5100236;28;20205;-70
2021/11/18 03:24:59;;;;;;;5.97;4.00;;;;;;;;;;5099817;28;20205;-70
2021/11/18 03:27:27;;;;;;;6.77;4.77;;;;;;;;;;5096021;28;20197;-70
2021/11/18 03:29:56;;;;;;;3.93;2.90;;;;;;;;;;5085642;28;20302;-70
2021/11/18 03:32:24;;;;;;;6.53;3.40;;;;;;;;;;5093241;28;20222;-69
2021/11/18 03:34:52;;;;;;;5.57;3.53;;;;;;;;;;5099086;28;20197;-70
2021/11/18 03:37:20;;;;;;;3.97;3.23;;;;;;;;;;5089390;28;20208;-70
2021/11/18 03:39:48;;;;;;;6.77;3.30;;;;;;;;;;5096865;28;20618;-70
2021/11/18 03:42:16;;;;;;;3.60;3.30;;;;;;;;;;5097807;28;20225;-69
2021/11/18 03:44:44;;;;;;;4.30;3.80;;;;;;;;;;5097612;28;20205;-70
2021/11/18 03:47:16;;;;;;;6.63;3.87;;;;;;;;;;5097356;28;20686;-70
2021/11/18 03:49:44;;;;;;;5.73;3.67;;;;;;;;;;5097935;28;20706;-71
2021/11/18 03:52:13;;;;;;;4.40;3.70;;;;;;;;;;5098098;28;20704;-71
2021/11/18 03:54:42;;;;;;;6.50;3.90;;;;;;;;;;5095380;28;20312;-71
2021/11/18 03:57:10;;;;;;;4.23;2.90;;;;;;;;;;5097573;28;20668;-71
2021/11/18 03:59:39;;;;;;;6.90;3.70;;;;;;;;;;5097961;28;20228;-71
2021/11/18 04:02:07;;;;;;;5.87;3.73;;;;;;;;;;5097843;28;20206;-71
2021/11/18 04:04:38;;;;;;;6.60;3.80;;;;;;;;;;5098087;28;20205;-71
2021/11/18 04:07:07;;;;;;;5.63;3.90;;;;;;;;;;5096788;28;20216;-71
2021/11/18 04:09:35;;;;;;;5.27;4.00;;;;;;;;;;5097032;28;20222;-71
2021/11/18 04:12:03;;;;;;;4.40;3.43;;;;;;;;;;5095327;28;20216;-71
2021/11/18 04:14:32;;;;;;;3.83;3.37;;;;;;;;;;5093854;28;20721;-71
2021/11/18 04:17:00;;;;;;;4.00;3.47;;;;;;;;;;5097246;28;20200;-71
2021/11/18 04:19:28;;;;;;;5.47;4.27;;;;;;;;;;5097838;28;20224;-71
2021/11/18 04:21:59;;;;;;;6.63;4.30;;;;;;;;;;5097618;28;20202;-71
2021/11/18 04:24:28;;;;;;;7.27;4.17;;;;;;;;;;5095737;28;20194;-71
2021/11/18 04:26:56;;;;;;;6.87;4.80;;;;;;;;;;5097592;28;20201;-71
2021/11/18 04:29:28;;;;;;;7.47;4.17;;;;;;;;;;5095367;28;20222;-71
2021/11/18 04:31:56;;;;;;;6.37;4.10;;;;;;;;;;5098093;28;20249;-71
2021/11/18 04:34:25;;;;;;;5.53;4.37;;;;;;;;;;5095740;28;20221;-71
2021/11/18 04:36:52;;;;;;;5.93;4.30;;;;;;;;;;5097832;28;20208;-71
2021/11/18 04:39:22;;;;;;;6.97;4.80;;;;;;;;;;5098438;28;20230;-71
2021/11/18 04:41:51;;;;;;;7.57;4.27;;;;;;;;;;5098116;28;20201;-71
2021/11/18 04:44:20;;;;;;;5.57;4.60;;;;;;;;;;5097562;28;20232;-71
2021/11/18 04:46:48;;;;;;;8.20;4.33;;;;;;;;;;5097949;28;20756;-71
2021/11/18 04:49:16;;;;;;;6.30;4.37;;;;;;;;;;5098527;28;20232;-71
2021/11/18 04:51:44;;;;;;;6.47;4.67;;;;;;;;;;5098342;28;20255;-71
2021/11/18 04:54:12;;;;;;;6.47;4.93;;;;;;;;;;5098557;28;20229;-71
2021/11/18 04:56:42;;;;;;;7.37;4.90;;;;;;;;;;5098185;28;20206;-71
2021/11/18 04:59:10;;;;;;;6.47;4.60;;;;;;;;;;5098006;28;20232;-71
2021/11/18 05:01:38;;;;;;;6.83;4.83;;;;;;;;;;5097162;28;20661;-71
2021/11/18 05:04:08;;;;;;;6.83;4.37;;;;;;;;;;5097752;28;20204;-71
2021/11/18 05:06:36;;;;;;;8.50;4.70;;;;;;;;;;5097692;28;20265;-71
2021/11/18 05:09:05;;;;;;;6.67;4.33;;;;;;;;;;5097461;28;20232;-71
2021/11/18 05:11:33;;;;;;;5.93;4.23;;;;;;;;;;5097605;28;20201;-71
2021/11/18 05:14:02;;;;;;;6.60;4.53;;;;;;;;;;5097162;28;20219;-71
2021/11/18 05:16:31;;;;;;;6.20;4.47;;;;;;;;;;5097162;28;20212;-71
2021/11/18 05:18:59;;;;;;;10.10;4.70;;;;;;;;;;5097722;28;20222;-71
2021/11/18 05:21:29;;;;;;;5.23;4.00;;;;;;;;;;5095164;28;20198;-69
2021/11/18 05:23:58;;;;;;;7.13;4.37;;;;;;;;;;5097869;28;20236;-68
2021/11/18 05:26:26;;;;;;;5.67;3.93;;;;;;;;;;5097649;28;20243;-68
2021/11/18 05:28:54;;;;;;;6.67;4.33;;;;;;;;;;5097724;28;20218;-68
2021/11/18 05:31:24;;;;;;;6.13;4.27;;;;;;;;;;5097967;28;20209;-68
2021/11/18 05:33:52;;;;;;;6.77;4.83;;;;;;;;;;5098290;28;20221;-68
2021/11/18 05:36:21;;;;;;;5.43;3.80;;;;;;;;;;5098050;28;20288;-68
2021/11/18 05:38:49;;;;;;;5.80;3.93;;;;;;;;;;5097852;28;20221;-68
2021/11/18 05:41:17;;;;;;;7.07;4.43;;;;;;;;;;5097840;28;20211;-68
2021/11/18 05:43:45;;;;;;;6.47;4.20;;;;;;;;;;5097397;28;20756;-68
2021/11/18 05:46:14;;;;;;;6.30;4.50;;;;;;;;;;5097510;28;20205;-66
2021/11/18 05:48:44;;;;;;;4.60;4.00;;;;;;;;;;5097653;28;20233;-69
2021/11/18 05:51:13;;;;;;;6.20;4.63;;;;;;;;;;5088301;28;20284;-69
2021/11/18 05:53:46;;;;;;;5.33;4.40;;;;;;;;;;5093616;28;20233;-68
2021/11/18 05:56:15;;;;;;;6.23;4.77;;;;;;;;;;5096723;28;20212;-69
2021/11/18 05:58:44;;;;;;;6.33;4.73;;;;;;;;;;5084786;28;20226;-69
2021/11/18 06:01:13;;;;;;;9.00;4.90;;;;;;;;;;5100338;28;20204;-70
2021/11/18 06:03:42;;;;;;;5.07;4.40;;;;;;;;;;5101233;28;20240;-70
2021/11/18 06:06:11;;;;;;;5.90;4.00;;;;;;;;;;5101303;28;20201;-70
2021/11/18 06:08:39;;;;;;;12.17;4.37;;;;;;;;;;5101005;28;20225;-70
2021/11/18 06:11:08;;;;;;;8.20;4.53;;;;;;;;;;5097692;28;20201;-70
2021/11/18 06:13:36;;;;;;;5.80;3.80;;;;;;;;;;5100947;28;20209;-70
2021/11/18 06:16:04;;;;;;;8.17;5.00;;;;;;;;;;5086285;28;20201;-69
2021/11/18 06:18:33;;;;;;;6.53;4.40;;;;;;;;;;5088805;28;20280;-70
2021/11/18 06:21:00;;;;;;;8.27;4.27;;;;;;;;;;5088729;28;20214;-69
2021/11/18 06:23:30;;;;;;;9.77;4.93;;;;;;;;;;5088385;28;20263;-71
2021/11/18 06:25:58;;;;;;;6.30;4.53;;;;;;;;;;5098664;28;20201;-70
2021/11/18 06:28:26;;;;;;;7.87;4.57;;;;;;;;;;5100819;28;20222;-70
2021/11/18 06:30:55;;;;;;;9.13;5.90;;;;;;;;;;5100945;28;20211;-70
2021/11/18 06:33:23;;;;;;;5.57;4.40;;;;;;;;;;5100978;28;20209;-70
2021/11/18 06:35:52;;;;;;;9.97;4.80;;;;;;;;;;5101040;28;20228;-70
2021/11/18 06:38:36;;;;;;;9.10;5.33;;;;;;;;;;5100163;28;20568;-70
2021/11/18 06:41:04;;;;;;;7.57;4.63;;;;;;;;;;5100640;28;20571;-70
2021/11/18 06:43:33;;;;;;;6.33;4.70;;;;;;;;;;5100212;28;20241;-70
2021/11/18 06:46:00;;;;;;;8.13;5.07;;;;;;;;;;5100541;28;20240;-67
2021/11/18 06:48:30;;;;;;;8.07;4.60;;;;;;;;;;5100585;28;20312;-66
2021/11/18 06:51:00;;;;;;;8.10;4.80;;;;;;;;;;5100348;28;20240;-66
2021/11/18 06:53:30;;;;;;;6.63;4.83;;;;;;;;;;5100332;28;20212;-66
2021/11/18 06:56:00;;;;;;;7.53;4.77;;;;;;;;;;5100353;28;20764;-66
2021/11/18 06:58:28;;;;;;;7.10;4.97;;;;;;;;;;5099950;28;20221;-66
2021/11/18 07:00:56;;;;;;;9.87;4.67;;;;;;;;;;5099899;28;20210;-67
2021/11/18 07:03:25;;;;;;;11.70;5.20;;;;;;;;;;5100084;28;20212;-67
2021/11/18 07:05:53;;;;;;;6.47;5.03;;;;;;;;;;5099268;28;20281;-67
2021/11/18 07:08:22;;;;;;;8.97;4.63;;;;;;;;;;5099777;28;20251;-67
2021/11/18 07:10:50;;;;;;;6.63;5.00;;;;;;;;;;5099183;28;20206;-67
2021/11/18 07:13:21;;;;;;;6.27;4.60;;;;;;;;;;5100078;28;20245;-67
2021/11/18 07:15:51;;;;;;;8.43;4.73;;;;;;;;;;5099967;28;20321;-67
2021/11/18 07:18:23;;;;;;;6.70;4.47;;;;;;;;;;5099981;28;20228;-67
2021/11/18 07:20:52;;;;;;;8.60;5.57;;;;;;;;;;5099875;28;20289;-67
2021/11/18 07:23:20;;;;;;;7.33;5.43;;;;;;;;;;5099953;28;20244;-67
2021/11/18 07:25:49;;;;;;;5.70;4.77;;;;;;;;;;5099989;28;20242;-67
2021/11/18 07:28:22;;;;;;;7.63;4.93;;;;;;;;;;5099663;28;20772;-67
2021/11/18 07:30:50;;;;;;;8.40;4.43;;;;;;;;;;5099822;28;20643;-67
2021/11/18 07:33:19;;;;;;;9.27;5.17;;;;;;;;;;5100049;28;20614;-67
2021/11/18 07:35:47;;;;;;;8.73;5.73;;;;;;;;;;5099904;28;20236;-67
2021/11/18 07:38:17;;;;;;;11.73;5.90;;;;;;;;;;5099271;28;20225;-66
2021/11/18 07:40:46;;;;;;;6.73;4.80;;;;;;;;;;5099611;28;20206;-67
2021/11/18 07:43:18;;;;;;;7.40;5.40;;;;;;;;;;5099331;28;20237;-67
2021/11/18 07:45:48;;;;;;;9.60;5.50;;;;;;;;;;5099248;28;20233;-66
2021/11/18 07:48:16;;;;;;;7.27;5.17;;;;;;;;;;5099135;28;20308;-67
2021/11/18 07:50:45;;;;;;;9.73;5.90;;;;;;;;;;5096022;28;20202;-67
2021/11/18 07:53:14;;;;;;;9.17;6.23;;;;;;;;;;5093303;28;20240;-66
2021/11/18 07:55:47;;;;;;;8.57;5.50;;;;;;;;;;5099287;28;20312;-66
2021/11/18 07:58:15;;;;;;;12.97;6.63;;;;;;;;;;5099227;28;20267;-67
2021/11/18 08:00:44;;;;;;;12.20;5.80;;;;;;;;;;5098704;28;20971;-69
2021/11/18 08:03:15;;;;;;;10.70;5.83;;;;;;;;;;5099008;28;20300;-68
2021/11/18 08:05:44;;;;;;;32.67;16.73;;;;;;;;;;5103243;28;20189;-67
2021/11/18 08:08:12;;;;;;;10.80;5.97;;;;;;;;;;5108237;28;20697;-66
2021/11/18 08:10:40;;;;;;;6.47;5.03;;;;;;;;;;5104901;28;20203;-68
2021/11/18 08:13:08;;;;;;;9.13;5.87;;;;;;;;;;5105264;28;20197;-67
2021/11/18 08:15:36;;;;;;;8.23;6.17;;;;;;;;;;5100395;28;20253;-67
2021/11/18 08:18:05;;;;;;;9.80;6.50;;;;;;;;;;5089326;28;20704;-67
2021/11/18 08:20:35;;;;;;;8.17;5.57;;;;;;;;;;5098318;28;20217;-67
2021/11/18 08:23:03;;;;;;;9.17;5.97;;;;;;;;;;5098859;28;20212;-68
2021/11/18 08:25:32;;;;;;;8.80;6.20;;;;;;;;;;5098773;28;20205;-67
2021/11/18 08:28:01;;;;;;;9.83;6.50;;;;;;;;;;5098420;28;20253;-67
2021/11/18 08:30:31;;;;;;;10.97;7.00;;;;;;;;;;5098499;28;20241;-67
2021/11/18 08:33:01;;;;;;;10.73;7.00;;;;;;;;;;5099357;28;20718;-68
2021/11/18 08:35:32;;;;;;;10.40;6.70;;;;;;;;;;5099240;28;20229;-67
2021/11/18 08:38:01;;;;;;;9.47;6.77;;;;;;;;;;5098314;28;20225;-67
2021/11/18 08:40:31;;;;;;;14.23;6.60;;;;;;;;;;5085826;28;20667;-65
2021/11/18 08:42:59;;;;;;;12.20;6.37;;;;;;;;;;5098184;28;20233;-65
2021/11/18 08:45:27;;;;;;;11.47;6.50;;;;;;;;;;5097841;28;20213;-67
2021/11/18 08:47:56;;;;;;;13.07;7.27;;;;;;;;;;5098158;28;20244;-67
2021/11/18 08:50:25;;;;;;;11.63;7.07;;;;;;;;;;5097686;28;20205;-66
2021/11/18 08:52:53;;;;;;;10.33;6.43;;;;;;;;;;5094318;28;20576;-66
2021/11/18 08:55:25;;;;;;;12.07;6.53;;;;;;;;;;5098061;28;20230;-65
2021/11/18 08:57:54;;;;;;;10.33;7.00;;;;;;;;;;5097991;28;20213;-68
2021/11/18 09:00:23;;;;;;;9.70;6.17;;;;;;;;;;5102944;28;20197;-68
2021/11/18 09:02:51;;;;;;;9.70;6.03;;;;;;;;;;5106904;28;20591;-65
2021/11/18 09:05:20;;;;;;;10.77;6.00;;;;;;;;;;5104559;28;20194;-66
2021/11/18 09:07:48;;;;;;;10.43;6.30;;;;;;;;;;5108685;28;20210;-66
2021/11/18 09:10:16;;;;;;;8.93;6.13;;;;;;;;;;5097727;28;20744;-66
2021/11/18 09:12:47;;;;;;;12.03;6.07;;;;;;;;;;5097731;28;20260;-66
2021/11/18 09:15:16;;;;;;;10.53;7.40;;;;;;;;;;5097476;28;20335;-66
2021/11/18 09:17:45;;;;;;;10.07;6.70;;;;;;;;;;5097444;28;20209;-67
2021/11/18 09:20:14;;;;;;;8.53;5.93;;;;;;;;;;5097972;28;20232;-66
2021/11/18 09:22:43;;;;;;;11.40;6.63;;;;;;;;;;5097931;28;20220;-67
2021/11/18 09:25:12;;;;;;;10.80;5.83;;;;;;;;;;5097492;28;20205;-66
2021/11/18 09:27:42;;;;;;;8.70;6.50;;;;;;;;;;5097424;28;20205;-66
2021/11/18 09:30:13;;;;;;;9.57;5.83;;;;;;;;;;5097591;28;20232;-66
2021/11/18 09:32:41;;;;;;;10.43;6.30;;;;;;;;;;5097130;28;20680;-67
2021/11/18 09:35:12;;;;;;;11.27;6.97;;;;;;;;;;5097531;28;20233;-66
2021/11/18 09:37:40;;;;;;;10.30;6.73;;;;;;;;;;5097319;28;20615;-66
2021/11/18 09:40:10;;;;;;;10.20;6.10;;;;;;;;;;5097338;28;20300;-66
2021/11/18 09:42:44;;;;;;;11.70;7.30;;;;;;;;;;5097075;28;20630;-65
2021/11/18 09:45:17;;;;;;;9.70;6.17;;;;;;;;;;5097252;28;20567;-66
2021/11/18 09:47:59;;;;;;;12.97;6.83;;;;;;;;;;5096981;28;20205;-67
2021/11/18 09:50:33;;;;;;;11.33;6.00;;;;;;;;;;5096273;28;20824;-66
2021/11/18 09:53:07;;;;;;;13.83;6.70;;;;;;;;;;5084837;28;20205;-67
2021/11/18 09:55:38;;;;;;;11.73;6.20;;;;;;;;;;5096931;28;20275;-67
2021/11/18 09:58:12;;;;;;;11.90;7.03;;;;;;;;;;5095512;28;20221;-66
2021/11/18 10:00:52;;;;;;;7.73;5.23;;;;;;;;;;5100832;28;20193;-69
2021/11/18 10:03:29;;;;;;;11.03;6.27;;;;;;;;;;5098918;28;20201;-70
2021/11/18 10:06:01;;;;;;;10.20;5.93;;;;;;;;;;5097218;28;20197;-68
2021/11/18 10:08:31;;;;;;;9.50;5.97;;;;;;;;;;5097186;28;20228;-66
2021/11/18 10:11:06;;;;;;;8.57;5.37;;;;;;;;;;5097129;28;20288;-66
2021/11/18 10:14:10;;;;;;;6.67;5.40;;;;;;;;;;5097122;28;20297;-66
2021/11/18 10:16:43;;;;;;;12.63;6.67;;;;;;;;;;5094053;28;20263;-66
2021/11/18 10:19:13;;;;;;;7.50;4.93;;;;;;;;;;5088786;28;20221;-69
2021/11/18 10:21:43;;;;;;;11.40;5.67;;;;;;;;;;5097036;28;20235;-66
2021/11/18 10:24:12;;;;;;;8.00;5.13;;;;;;;;;;5097005;28;20262;-69
2021/11/18 10:26:44;;;;;;;7.13;4.77;;;;;;;;;;5097026;28;20297;-68
2021/11/18 10:29:14;;;;;;;7.87;4.80;;;;;;;;;;5097095;28;20221;-68
2021/11/18 10:31:50;;;;;;;9.50;5.17;;;;;;;;;;5096918;28;20680;-68
2021/11/18 10:34:22;;;;;;;5.83;4.70;;;;;;;;;;5097106;28;20336;-67
2021/11/18 10:36:58;;;;;;;11.43;5.33;;;;;;;;;;5097332;28;20285;-67
2021/11/18 10:39:33;;;;;;;7.13;4.97;;;;;;;;;;5097681;28;20233;-66
2021/11/18 10:42:02;;;;;;;9.03;4.63;;;;;;;;;;5099040;28;20212;-65
2021/11/18 10:44:31;;;;;;;9.23;5.00;;;;;;;;;;5100389;28;20232;-66
2021/11/18 10:47:03;;;;;;;7.73;4.50;;;;;;;;;;5100306;28;20740;-67
2021/11/18 10:49:34;;;;;;;7.13;5.23;;;;;;;;;;5092990;28;20279;-68
2021/11/18 10:52:04;;;;;;;7.23;3.90;;;;;;;;;;5100329;28;20259;-69
2021/11/18 10:54:43;;;;;;;6.73;4.53;;;;;;;;;;5100527;28;20645;-67
2021/11/18 10:57:16;;;;;;;7.00;4.17;;;;;;;;;;5100440;28;20243;-68
2021/11/18 10:59:45;;;;;;;6.37;4.40;;;;;;;;;;5100274;28;20268;-70
2021/11/18 11:02:34;;;;;;;6.03;3.53;;;;;;;;;;5099989;28;20686;-67
2021/11/18 11:05:21;;;;;;;8.30;4.93;;;;;;;;;;5093868;28;20255;-66
2021/11/18 11:07:49;;;;;;;6.03;4.30;;;;;;;;;;5107387;28;20197;-66
2021/11/18 11:10:19;;;;;;;5.67;3.73;;;;;;;;;;5109500;28;20197;-66
2021/11/18 11:12:51;;;;;;;3.90;3.30;;;;;;;;;;5106909;28;20198;-66
2021/11/18 11:15:34;;;;;;;7.23;4.90;;;;;;;;;;5107456;28;20208;-68
2021/11/18 11:18:05;;;;;;;5.93;4.40;;;;;;;;;;5105423;28;20217;-68
2021/11/18 11:20:45;;;;;;;5.23;3.73;;;;;;;;;;5107978;28;20202;-67
2021/11/18 11:23:18;;;;;;;5.30;4.23;;;;;;;;;;5105788;28;20219;-68
2021/11/18 11:25:57;;;;;;;6.63;3.70;;;;;;;;;;5100649;28;20678;-69
2021/11/18 11:28:42;;;;;;;4.73;3.37;;;;;;;;;;5100298;28;20212;-68
2021/11/18 11:31:20;;;;;;;4.33;2.87;;;;;;;;;;5086621;28;20292;-65
2021/11/18 11:33:52;;;;;;;10.80;3.37;;;;;;;;;;5100207;28;20201;-68
2021/11/18 11:36:24;;;;;;;24.27;10.10;;;;;;;;;;5104690;28;20579;-70
2021/11/18 11:39:02;;;;;;;22.13;10.20;;;;;;;;;;5109417;28;20225;-70
2021/11/18 11:41:48;;;;;;;13.87;6.30;;;;;;;;;;5108790;28;20299;-69
2021/11/18 11:44:22;;;;;;;5.23;3.77;;;;;;;;;;5108692;28;20232;-68
2021/11/18 11:46:54;;;;;;;4.13;2.90;;;;;;;;;;5099571;28;20208;-69
2021/11/18 11:49:29;;;;;;;4.23;3.50;;;;;;;;;;5099412;28;20636;-69
2021/11/18 11:52:13;;;;;;;4.83;3.13;;;;;;;;;;5098642;28;20201;-69
2021/11/18 11:54:51;;;;;;;4.33;3.60;;;;;;;;;;5099217;28;20292;-70
2021/11/18 11:57:33;;;;;;;4.93;3.50;;;;;;;;;;5099540;28;20225;-69
2021/11/18 12:00:06;;;;;;;5.57;3.37;;;;;;;;;;5099238;28;20236;-69
2021/11/18 12:02:38;;;;;;;4.60;3.17;;;;;;;;;;5098661;28;20221;-69
2021/11/18 12:05:08;;;;;;;4.27;3.10;;;;;;;;;;5098871;28;20205;-69
2021/11/18 12:07:40;;;;;;;3.57;3.27;;;;;;;;;;5099121;28;20227;-69
2021/11/18 12:10:14;;;;;;;3.07;2.73;;;;;;;;;;5091330;28;20323;-69
2021/11/18 12:12:44;;;;;;;5.53;3.60;;;;;;;;;;5095772;28;20227;-69
2021/11/18 12:15:13;;;;;;;4.77;3.50;;;;;;;;;;5098762;28;20202;-69
2021/11/18 12:17:42;;;;;;;5.63;3.60;;;;;;;;;;5096419;28;20225;-68
2021/11/18 12:20:12;;;;;;;4.77;3.20;;;;;;;;;;5090499;28;20212;-68
2021/11/18 12:22:57;;;;;;;5.50;3.57;;;;;;;;;;5099051;28;20219;-70
2021/11/18 12:25:45;;;;;;;4.30;3.27;;;;;;;;;;5099072;28;20206;-70
2021/11/18 12:28:22;;;;;;;4.70;2.93;;;;;;;;;;5098547;28;20565;-69
2021/11/18 12:30:58;;;;;;;3.47;2.80;;;;;;;;;;5098350;28;20571;-70
2021/11/18 12:33:39;;;;;;;4.30;3.17;;;;;;;;;;5098991;28;20219;-69
2021/11/18 12:36:09;;;;;;;6.07;2.97;;;;;;;;;;5098857;28;20209;-69
2021/11/18 12:38:41;;;;;;;4.03;2.37;;;;;;;;;;5098483;28;20236;-67
2021/11/18 12:41:27;;;;;;;6.40;3.00;;;;;;;;;;5098984;28;20216;-70
2021/11/18 12:44:08;;;;;;;4.80;2.50;;;;;;;;;;5098232;28;20237;-70
2021/11/18 12:46:51;;;;;;;4.40;2.30;;;;;;;;;;5098372;28;20209;-70
2021/11/18 12:49:20;;;;;;;4.00;2.40;;;;;;;;;;5098303;28;20225;-70
2021/11/18 12:52:14;;;;;;;3.53;2.80;;;;;;;;;;5098126;28;20233;-70
2021/11/18 12:54:48;;;;;;;2.83;2.40;;;;;;;;;;5098482;28;20297;-70
2021/11/18 12:57:31;;;;;;;2.70;2.17;;;;;;;;;;5098130;28;20692;-70
2021/11/18 13:00:06;;;;;;;2.90;2.03;;;;;;;;;;5097944;28;20261;-70
2021/11/18 13:02:48;;;;;;;3.87;1.80;;;;;;;;;;5098274;28;20215;-68
2021/11/18 13:05:40;;;;;;;2.50;2.03;;;;;;;;;;5095025;28;20231;-70
2021/11/18 13:08:36;;;;;;;1.90;1.80;;;;;;;;;;5077991;28;20726;-70
2021/11/18 13:11:18;;;;;;;7.37;1.77;;;;;;;;;;5084775;28;20292;-70
2021/11/18 13:13:48;;;;;;;3.43;1.90;;;;;;;;;;5097585;28;20720;-70
2021/11/18 13:16:31;;;;;;;2.13;1.93;;;;;;;;;;5097614;28;20248;-70
2021/11/18 13:19:26;;;;;;;2.10;1.80;;;;;;;;;;5097863;28;20233;-69
2021/11/18 13:21:58;;;;;;;2.53;1.97;;;;;;;;;;5097848;28;20216;-68
2021/11/18 13:24:45;;;;;;;3.03;2.00;;;;;;;;;;5098041;28;20205;-70
2021/11/18 13:27:16;;;;;;;1.70;1.60;;;;;;;;;;5098083;28;20216;-70
2021/11/18 13:30:08;;;;;;;2.23;1.93;;;;;;;;;;5097797;28;20197;-70
2021/11/18 13:32:46;;;;;;;3.50;1.93;;;;;;;;;;5097807;28;20205;-70
2021/11/18 13:35:19;;;;;;;1.90;1.50;;;;;;;;;;5097889;28;20215;-68
2021/11/18 13:37:47;;;;;;;3.30;1.93;;;;;;;;;;5097620;28;20241;-69
2021/11/18 13:40:19;;;;;;;1.47;1.30;;;;;;;;;;5097531;28;20710;-69
2021/11/18 13:43:04;;;;;;;1.60;1.50;;;;;;;;;;5097630;28;20320;-70
2021/11/18 13:45:34;;;;;;;1.43;1.30;;;;;;;;;;5097165;28;20661;-70
2021/11/18 13:48:04;;;;;;;2.73;1.10;;;;;;;;;;5097466;28;20592;-69
2021/11/18 13:50:34;;;;;;;1.20;1.10;;;;;;;;;;5097368;28;20579;-68
2021/11/18 13:53:04;;;;;;;1.50;1.40;;;;;;;;;;5097550;28;20202;-69
2021/11/18 13:55:35;;;;;;;1.40;1.30;;;;;;;;;;5097479;28;20202;-69
2021/11/18 13:58:10;;;;;;;1.77;1.67;;;;;;;;;;5097511;28;20236;-70
2021/11/18 14:00:43;;;;;;;2.70;1.20;;;;;;;;;;5097318;28;20656;-70
2021/11/18 14:03:18;;;;;;;2.23;1.30;;;;;;;;;;5097552;28;20206;-70
2021/11/18 14:05:47;;;;;;;1.40;1.30;;;;;;;;;;5097826;28;20209;-70
2021/11/18 14:08:17;;;;;;;1.67;1.37;;;;;;;;;;5097370;28;20227;-68
2021/11/18 14:10:48;;;;;;;2.03;1.30;;;;;;;;;;5084636;28;20209;-70
2021/11/18 14:13:31;;;;;;;1.60;1.50;;;;;;;;;;5097593;28;20209;-70
2021/11/18 14:16:02;;;;;;;2.30;2.00;;;;;;;;;;5097542;28;20213;-70
2021/11/18 14:19:02;;;;;;;4.83;1.97;;;;;;;;;;5100978;28;20599;-70
2021/11/18 14:21:33;;;;;;;2.43;1.77;;;;;;;;;;5087944;28;20201;-70
2021/11/18 14:24:04;;;;;;;2.80;2.00;;;;;;;;;;5101414;28;20201;-70
2021/11/18 14:26:39;;;;;;;3.33;1.63;;;;;;;;;;5101268;28;20211;-69
2021/11/18 14:29:32;;;;;;;1.67;1.40;;;;;;;;;;5100849;28;20300;-69
2021/11/18 14:32:03;;;;;;;2.67;1.57;;;;;;;;;;5101156;28;20209;-69
2021/11/18 14:34:39;;;;;;;2.23;1.73;;;;;;;;;;5101087;28;20590;-70
2021/11/18 14:37:25;;;;;;;1.57;1.47;;;;;;;;;;5100951;28;20209;-69
2021/11/18 14:39:54;;;;;;;1.37;1.27;;;;;;;;;;5100857;28;20239;-69
2021/11/18 14:42:23;;;;;;;1.23;1.13;;;;;;;;;;5100881;28;20240;-70
2021/11/18 14:45:12;;;;;;;1.50;1.30;;;;;;;;;;5100873;28;20210;-70
2021/11/18 14:47:43;;;;;;;1.53;1.30;;;;;;;;;;5094655;28;20704;-69
2021/11/18 14:50:13;;;;;;;1.50;1.40;;;;;;;;;;5100833;28;20280;-70
2021/11/18 14:52:42;;;;;;;1.53;1.30;;;;;;;;;;5100939;28;20297;-69
2021/11/18 14:55:21;;;;;;;3.10;1.63;;;;;;;;;;5100516;28;20748;-70
2021/11/18 14:57:52;;;;;;;1.37;1.30;;;;;;;;;;5100817;28;20221;-70
2021/11/18 15:00:21;;;;;;;1.83;1.60;;;;;;;;;;5100241;28;20208;-70
2021/11/18 15:02:50;;;;;;;1.97;1.57;;;;;;;;;;5100514;28;20579;-69
2021/11/18 15:05:19;;;;;;;1.90;1.60;;;;;;;;;;5100421;28;20205;-70